Dufftown, United Kingdom
Current Conditions -  °F | °C
As of 2:29 PM on Monday 26 Jan 2015 (Local Time) from EGQS Reporting Station
Rain Showers Rain Showers  
Wind Chill: 32°   Ceiling: 6000
Heat Index: 41°   Visibility: 6mi
Dew Point: 36°   Wind: 18mph
Humidity: 81%   Direction: 280°W
Pressure: 30"   Gusts: NA
Location:  57.43°N, 3.13°W
Report Text: EGQS 261429Z 28016KT 9999 4000W -SHRA SCT020CB BKN060 05/02 Q1016 GRN TEMPO 9999 NSW FEW020 BLU
Loading
Personal Weather Stations






























Interactive Weather Map New forecast layout! Learn more

10-Day Weather Forecast

Advertisements
Track Severe Weather on mobile